createdAt,value
2019-06-07T00:00:40.309Z,66.97
2019-06-07T00:03:10.623Z,67.42
2019-06-07T00:05:38.159Z,67.27
2019-06-07T00:08:11.169Z,66.82
2019-06-07T00:10:37.279Z,66.61
2019-06-07T00:13:06.913Z,66.64
2019-06-07T00:15:35.280Z,66.59
2019-06-07T00:18:03.599Z,66.56
2019-06-07T00:20:32.009Z,67.29
2019-06-07T00:23:00.325Z,67.42
2019-06-07T00:25:28.655Z,67.14
2019-06-07T00:27:56.944Z,66.96
2019-06-07T00:30:50.178Z,67.14
2019-06-07T00:32:55.696Z,66.90
2019-06-07T00:35:24.172Z,66.67
2019-06-07T00:37:52.592Z,67.17
2019-06-07T00:40:31.354Z,67.44
2019-06-07T00:42:51.027Z,67.10
2019-06-07T00:45:22.438Z,67.16
2019-06-07T00:47:49.368Z,67.05
2019-06-07T00:50:21.083Z,66.88
2019-06-07T00:55:20.046Z,67.44
2019-06-07T00:57:48.156Z,67.16
2019-06-07T01:00:21.933Z,67.31
2019-06-07T01:02:48.237Z,67.50
2019-06-07T01:05:21.997Z,67.71
2019-06-07T01:07:46.908Z,67.84
2019-06-07T01:10:17.355Z,67.31
2019-06-07T01:12:46.776Z,67.18
2019-06-07T01:15:17.619Z,67.55
2019-06-07T01:18:32.615Z,67.39
2019-06-07T01:20:19.169Z,67.42
2019-06-07T01:22:47.013Z,68.11
2019-06-07T01:25:15.813Z,67.77
2019-06-07T01:27:44.306Z,67.92
2019-06-07T01:30:16.201Z,67.81
2019-06-07T01:32:44.708Z,67.76
2019-06-07T01:35:13.359Z,67.56
2019-06-07T01:37:41.672Z,67.32
2019-06-07T01:40:10.161Z,67.35
2019-06-07T01:42:38.575Z,67.35
2019-06-07T01:45:11.604Z,67.16
2019-06-07T01:47:40.003Z,67.58
2019-06-07T01:50:09.140Z,67.40
2019-06-07T01:52:38.311Z,67.27
2019-06-07T01:55:06.842Z,67.06
2019-06-07T01:57:47.524Z,67.01
2019-06-07T02:00:11.817Z,67.10
2019-06-07T02:02:40.363Z,67.55
2019-06-07T02:05:09.077Z,67.61
2019-06-07T02:07:37.442Z,67.81
2019-06-07T02:10:06.541Z,67.72
2019-06-07T02:12:42.933Z,67.75
2019-06-07T02:15:08.672Z,67.54
2019-06-07T02:17:37.494Z,67.61
2019-06-07T02:20:06.355Z,67.51
2019-06-07T02:22:34.679Z,67.39
2019-06-07T02:25:34.948Z,67.62
2019-06-07T02:27:33.287Z,67.65
2019-06-07T02:30:35.189Z,67.64
2019-06-07T02:32:36.590Z,67.64
2019-06-07T02:35:01.871Z,67.85
2019-06-07T02:37:35.868Z,68.04
2019-06-07T02:40:00.685Z,67.68
2019-06-07T02:42:35.499Z,68.06
2019-06-07T02:44:59.057Z,68.34
2019-06-07T02:47:28.713Z,67.81
2019-06-07T02:49:57.686Z,68.19
2019-06-07T02:52:29.292Z,68.44
2019-06-07T02:54:56.123Z,67.98
2019-06-07T02:57:25.718Z,68.03
2019-06-07T03:00:16.282Z,68.08
2019-06-07T03:02:26.635Z,67.59
2019-06-07T03:04:54.582Z,67.41
2019-06-07T03:07:23.066Z,67.09
2019-06-07T03:09:51.588Z,67.08
2019-06-07T03:12:20.407Z,67.40
2019-06-07T03:14:48.784Z,67.72
2019-06-07T03:17:29.718Z,68.20
2019-06-07T03:20:01.082Z,68.44
2019-06-07T03:22:32.056Z,68.65
2019-06-07T03:25:01.911Z,68.93
2019-06-07T03:27:36.770Z,69.48
2019-06-07T03:30:00.295Z,69.14
2019-06-07T03:32:33.499Z,69.18
2019-06-07T03:34:58.630Z,69.18
2019-06-07T03:37:27.980Z,69.16
2019-06-07T03:39:57.039Z,69.24
2019-06-07T03:42:25.357Z,69.45
2019-06-07T03:44:53.735Z,69.16
2019-06-07T03:47:22.208Z,69.50
2019-06-07T03:49:50.530Z,69.89
2019-06-07T03:52:18.864Z,69.82
2019-06-07T03:54:47.165Z,70.07
2019-06-07T03:57:15.555Z,70.25
2019-06-07T03:59:43.965Z,69.77
2019-06-07T04:02:12.386Z,69.42
2019-06-07T04:04:40.683Z,69.25
2019-06-07T04:07:09.153Z,69.38
2019-06-07T04:09:42.479Z,69.65
2019-06-07T04:12:07.595Z,69.58
2019-06-07T04:14:38.501Z,69.32
2019-06-07T04:17:05.981Z,69.15
2019-06-07T04:19:38.492Z,69.26
2019-06-07T04:22:04.388Z,69.01
2019-06-07T04:24:34.688Z,69.17
2019-06-07T04:27:02.737Z,69.26
2019-06-07T04:29:33.831Z,69.36
2019-06-07T04:32:01.240Z,69.22
2019-06-07T04:34:32.016Z,69.04
2019-06-07T04:37:00.796Z,68.84
2019-06-07T04:39:33.487Z,69.17
2019-06-07T04:42:01.442Z,69.37
2019-06-07T04:44:31.184Z,69.56
2019-06-07T04:47:00.007Z,69.64
2019-06-07T04:49:29.904Z,69.39
2019-06-07T04:51:58.937Z,69.31
2019-06-07T04:54:27.323Z,69.46
2019-06-07T04:56:55.772Z,69.25
2019-06-07T05:00:01.088Z,68.97
2019-06-07T05:01:54.200Z,68.80
2019-06-07T05:04:22.503Z,68.65
2019-06-07T05:06:50.996Z,68.60
2019-06-07T05:09:19.323Z,68.75
2019-06-07T05:11:47.708Z,68.51
2019-06-07T05:14:16.141Z,68.52
2019-06-07T05:16:44.744Z,67.98
2019-06-07T05:19:13.199Z,67.76
2019-06-07T05:22:01.524Z,67.47
2019-06-07T05:24:11.558Z,67.80
2019-06-07T05:26:42.516Z,67.78
2019-06-07T05:29:09.956Z,67.66
2019-06-07T05:31:41.707Z,67.57
2019-06-07T05:34:08.665Z,67.34
2019-06-07T05:36:41.408Z,67.45
2019-06-07T05:39:08.585Z,67.41
2019-06-07T05:41:39.307Z,67.18
2019-06-07T05:44:12.849Z,66.79
2019-06-07T05:46:38.569Z,67.12
2019-06-07T05:49:07.195Z,67.49
2019-06-07T05:51:38.093Z,67.65
2019-06-07T05:54:05.669Z,67.09
2019-06-07T05:56:35.864Z,67.12
2019-06-07T05:59:04.224Z,66.68
2019-06-07T06:01:58.950Z,66.62
2019-06-07T06:04:02.670Z,65.93
2019-06-07T06:06:31.085Z,66.58
2019-06-07T06:09:13.236Z,66.95
2019-06-07T06:11:43.356Z,67.27
2019-06-07T06:14:07.429Z,67.08
2019-06-07T06:16:29.672Z,66.37
2019-06-07T06:18:58.031Z,65.78
2019-06-07T06:21:26.336Z,64.75
2019-06-07T06:23:54.638Z,64.52
2019-06-07T06:26:23.103Z,64.96
2019-06-07T06:28:51.489Z,64.92
2019-06-07T06:31:19.896Z,64.98
2019-06-07T06:33:49.884Z,64.47
2019-06-07T06:36:18.489Z,64.40
2019-06-07T06:38:49.583Z,64.01
2019-06-07T06:41:17.288Z,63.91
2019-06-07T06:43:49.364Z,63.47
2019-06-07T06:46:31.798Z,63.90
2019-06-07T06:48:51.732Z,63.58
2019-06-07T06:51:15.822Z,62.35
2019-06-07T06:53:46.221Z,61.83
2019-06-07T06:56:14.376Z,62.29
2019-06-07T06:59:25.168Z,62.06
2019-06-07T07:01:12.839Z,61.98
2019-06-07T07:04:00.169Z,61.44
2019-06-07T07:06:25.787Z,61.30
2019-06-07T07:08:43.542Z,60.45
2019-06-07T07:11:12.684Z,59.92
2019-06-07T07:13:41.653Z,60.17
2019-06-07T07:16:10.675Z,59.41
2019-06-07T07:18:38.974Z,59.94
2019-06-07T07:21:07.322Z,59.87
2019-06-07T07:23:35.821Z,60.02
2019-06-07T07:26:04.293Z,59.07
2019-06-07T07:28:32.653Z,58.78
2019-06-07T07:31:01.340Z,59.14
2019-06-07T07:34:24.097Z,59.43
2019-06-07T07:38:29.865Z,59.78
2019-06-07T07:41:08.949Z,58.46
2019-06-07T07:43:29.245Z,57.53
2019-06-07T07:46:02.766Z,57.91
2019-06-07T07:48:28.258Z,58.12
2019-06-07T07:51:00.292Z,58.05
2019-06-07T07:53:45.340Z,57.89
2019-06-07T07:56:00.161Z,56.18
2019-06-07T07:58:27.248Z,56.24
2019-06-07T08:01:07.667Z,57.71
2019-06-07T08:03:25.627Z,57.38
2019-06-07T08:05:58.393Z,57.25
2019-06-07T08:08:24.118Z,57.12
2019-06-07T08:10:55.829Z,56.97
2019-06-07T08:13:27.002Z,56.27
2019-06-07T08:15:58.795Z,56.50
2019-06-07T08:18:23.633Z,55.41
2019-06-07T08:21:11.701Z,55.80
2019-06-07T08:23:22.175Z,55.64
2019-06-07T08:25:52.709Z,56.13
2019-06-07T08:28:20.792Z,55.79
2019-06-07T08:30:56.911Z,55.58
2019-06-07T08:33:27.235Z,54.20
2019-06-07T08:36:10.324Z,54.15
2019-06-07T08:38:29.702Z,54.97
2019-06-07T08:40:56.865Z,54.12
2019-06-07T08:43:21.370Z,53.45
2019-06-07T08:45:55.766Z,53.20
2019-06-07T08:48:27.969Z,52.44
2019-06-07T08:50:54.269Z,53.58
2019-06-07T08:53:21.209Z,53.62
2019-06-07T08:55:54.174Z,53.43
2019-06-07T08:58:20.637Z,53.02
2019-06-07T09:00:48.954Z,52.09
2019-06-07T09:03:17.464Z,51.97
2019-06-07T09:05:45.851Z,52.08
2019-06-07T09:08:29.217Z,51.93
2019-06-07T09:10:44.714Z,51.68
2019-06-07T09:13:14.484Z,51.59
2019-06-07T09:15:42.761Z,51.61
2019-06-07T09:20:44.250Z,51.02
2019-06-07T09:23:17.107Z,50.21
2019-06-07T09:25:56.589Z,49.65
2019-06-07T09:28:19.827Z,49.31
2019-06-07T09:30:49.826Z,49.45
2019-06-07T09:33:18.176Z,49.42
2019-06-07T09:35:46.591Z,48.93
2019-06-07T09:38:25.155Z,48.48
2019-06-07T09:40:45.039Z,49.14
2019-06-07T09:45:44.747Z,49.48
2019-06-07T09:48:16.604Z,48.60
2019-06-07T09:50:43.319Z,48.38
2019-06-07T09:53:21.590Z,49.12
2019-06-07T09:55:41.862Z,48.88
2019-06-07T09:58:49.755Z,48.45
2019-06-07T10:00:42.367Z,48.55
2019-06-07T10:03:20.506Z,47.96
2019-06-07T10:05:41.019Z,48.68
2019-06-07T10:08:40.965Z,47.87
2019-06-07T10:10:42.639Z,47.79
2019-06-07T10:13:10.500Z,46.95
2019-06-07T10:15:39.060Z,46.66
2019-06-07T10:18:09.016Z,47.26
2019-06-07T10:20:37.701Z,46.28
2019-06-07T10:23:07.777Z,46.21
2019-06-07T10:25:36.260Z,45.96
2019-06-07T10:28:06.051Z,46.34
2019-06-07T10:30:34.614Z,46.38
2019-06-07T10:33:04.789Z,47.08
2019-06-07T10:35:33.059Z,46.68
2019-06-07T10:38:02.475Z,46.39
2019-06-07T10:40:30.974Z,46.19
2019-06-07T10:42:59.315Z,46.76
2019-06-07T10:45:27.605Z,46.75
2019-06-07T10:47:57.614Z,46.42
2019-06-07T10:50:25.908Z,45.69
2019-06-07T10:52:54.345Z,45.37
2019-06-07T10:55:22.710Z,44.54
2019-06-07T10:57:51.054Z,44.65
2019-06-07T11:00:19.948Z,43.95
2019-06-07T11:02:48.301Z,45.05
2019-06-07T11:05:18.680Z,44.30
2019-06-07T11:07:47.135Z,44.22
2019-06-07T11:10:19.690Z,43.47
2019-06-07T11:12:45.689Z,43.84
2019-06-07T11:15:14.978Z,44.55
2019-06-07T11:17:43.428Z,43.67
2019-06-07T11:20:12.525Z,44.09
2019-06-07T11:22:40.985Z,43.88
2019-06-07T11:25:10.849Z,42.87
2019-06-07T11:27:39.929Z,43.32
2019-06-07T11:30:08.557Z,43.54
2019-06-07T11:32:36.926Z,43.73
2019-06-07T11:35:11.906Z,44.59
2019-06-07T11:37:41.008Z,43.60
2019-06-07T11:40:27.763Z,42.97
2019-06-07T11:42:42.367Z,42.79
2019-06-07T11:45:12.829Z,43.04
2019-06-07T11:47:41.267Z,42.66
2019-06-07T11:50:11.587Z,43.22
2019-06-07T11:52:40.146Z,43.42
2019-06-07T11:55:09.209Z,44.07
2019-06-07T11:57:37.736Z,43.46
2019-06-07T12:00:14.101Z,43.65
2019-06-07T12:02:42.741Z,42.46
2019-06-07T12:05:16.186Z,42.28
2019-06-07T12:07:44.617Z,41.53
2019-06-07T12:10:12.844Z,41.53
2019-06-07T12:12:41.233Z,41.81
2019-06-07T12:15:10.965Z,42.08
2019-06-07T12:17:39.416Z,42.54
2019-06-07T12:20:10.497Z,41.52
2019-06-07T12:22:38.474Z,40.48
2019-06-07T12:25:07.533Z,40.09
2019-06-07T12:27:35.838Z,39.90
2019-06-07T12:30:15.464Z,40.47
2019-06-07T12:32:39.469Z,40.27
2019-06-07T12:35:08.319Z,38.48
2019-06-07T12:37:43.637Z,39.53
2019-06-07T12:40:08.102Z,38.13
2019-06-07T12:42:36.664Z,37.61
2019-06-07T12:45:07.201Z,37.87
2019-06-07T12:47:35.639Z,37.93
2019-06-07T12:50:08.277Z,37.25
2019-06-07T12:52:36.752Z,36.65
2019-06-07T12:55:08.394Z,36.84
2019-06-07T12:57:36.810Z,36.38
2019-06-07T13:00:14.162Z,36.37
2019-06-07T13:02:42.616Z,36.39
2019-06-07T13:05:11.365Z,36.03
2019-06-07T13:07:39.845Z,35.86
2019-06-07T13:10:08.725Z,36.43
2019-06-07T13:12:37.069Z,35.07
2019-06-07T13:15:06.964Z,33.09
2019-06-07T13:17:35.631Z,33.29
2019-06-07T13:20:07.925Z,33.46
2019-06-07T13:22:36.395Z,33.90
2019-06-07T13:25:08.177Z,34.17
2019-06-07T13:27:36.908Z,34.02
2019-06-07T13:30:10.320Z,34.92
2019-06-07T13:32:38.741Z,32.49
2019-06-07T13:35:08.503Z,32.64
2019-06-07T13:37:37.257Z,32.21
2019-06-07T13:40:06.516Z,33.07
2019-06-07T13:42:34.907Z,33.55
2019-06-07T13:45:04.008Z,33.12
2019-06-07T13:47:32.429Z,31.60
2019-06-07T13:50:00.748Z,31.54
2019-06-07T13:52:29.224Z,32.00
2019-06-07T13:54:57.606Z,31.50
2019-06-07T13:57:26.085Z,30.95
2019-06-07T13:59:54.443Z,30.54
2019-06-07T14:02:23.706Z,30.81
2019-06-07T14:04:53.260Z,30.37
2019-06-07T14:07:23.459Z,30.57
2019-06-07T14:09:51.707Z,29.78
2019-06-07T14:12:22.088Z,30.56
2019-06-07T14:14:50.255Z,30.33
2019-06-07T14:17:18.546Z,30.26
2019-06-07T14:19:46.949Z,30.73
2019-06-07T14:22:15.300Z,31.00
2019-06-07T14:24:43.631Z,30.91
2019-06-07T14:27:11.945Z,31.07
2019-06-07T14:29:40.364Z,29.94
2019-06-07T14:32:08.750Z,30.55
2019-06-07T14:34:37.335Z,30.92
2019-06-07T14:37:06.661Z,31.57
2019-06-07T14:39:35.126Z,31.39
2019-06-07T14:42:09.907Z,31.30
2019-06-07T14:44:34.290Z,31.56
2019-06-07T14:47:02.886Z,30.55
2019-06-07T14:49:32.684Z,31.06
2019-06-07T14:52:01.215Z,30.73
2019-06-07T14:54:32.247Z,31.51
2019-06-07T14:57:03.059Z,30.82
2019-06-07T14:59:30.459Z,30.60
2019-06-07T15:01:59.089Z,31.23
2019-06-07T15:04:28.526Z,31.17
2019-06-07T15:06:57.089Z,31.25
2019-06-07T15:09:26.719Z,31.22
2019-06-07T15:11:55.551Z,31.54
2019-06-07T15:14:23.912Z,31.39
2019-06-07T15:16:52.258Z,31.31
2019-06-07T15:19:23.869Z,31.63
2019-06-07T15:21:50.610Z,32.24
2019-06-07T15:24:19.040Z,32.08
2019-06-07T15:26:47.405Z,32.17
2019-06-07T15:29:15.750Z,31.92
2019-06-07T15:31:44.202Z,32.69
2019-06-07T15:34:12.856Z,32.41
2019-06-07T15:36:41.170Z,32.45
2019-06-07T15:39:09.622Z,32.51
2019-06-07T15:41:39.876Z,32.56
2019-06-07T15:44:08.342Z,32.75
2019-06-07T15:46:37.931Z,32.90
2019-06-07T15:49:06.783Z,32.69
2019-06-07T15:51:36.497Z,33.02
2019-06-07T15:54:05.161Z,33.64
2019-06-07T15:56:34.698Z,33.04
2019-06-07T15:59:03.345Z,33.05
2019-06-07T16:01:31.742Z,32.67
2019-06-07T16:04:00.193Z,32.51
2019-06-07T16:06:28.702Z,32.33
2019-06-07T16:08:57.129Z,31.56
2019-06-07T16:11:25.469Z,32.14
2019-06-07T16:13:53.885Z,32.09
2019-06-07T16:16:22.315Z,31.78
2019-06-07T16:18:50.685Z,31.67
2019-06-07T16:21:19.334Z,31.79
2019-06-07T16:23:47.872Z,31.68
2019-06-07T16:26:16.173Z,31.56
2019-06-07T16:28:44.749Z,31.68
2019-06-07T16:31:13.031Z,31.83
2019-06-07T16:33:41.567Z,31.68
2019-06-07T16:36:09.998Z,31.77
2019-06-07T16:38:38.392Z,31.16
2019-06-07T16:41:06.779Z,31.33
2019-06-07T16:43:36.464Z,31.59
2019-06-07T16:46:05.288Z,31.61
2019-06-07T16:48:33.922Z,31.72
2019-06-07T16:51:04.038Z,31.94
2019-06-07T16:53:32.564Z,33.42
2019-06-07T16:56:00.869Z,34.23
2019-06-07T16:58:29.247Z,33.67
2019-06-07T17:00:58.084Z,33.86
2019-06-07T17:03:26.871Z,34.69
2019-06-07T17:06:04.373Z,36.02
2019-06-07T17:08:32.745Z,36.62
2019-06-07T17:11:01.205Z,37.63
2019-06-07T17:13:33.629Z,38.42
2019-06-07T17:15:59.710Z,38.98
2019-06-07T17:18:28.137Z,39.69
2019-06-07T17:20:56.508Z,40.87
2019-06-07T17:23:24.807Z,41.30
2019-06-07T17:25:53.243Z,41.10
2019-06-07T17:28:21.694Z,40.99
2019-06-07T17:30:50.442Z,40.65
2019-06-07T17:33:18.861Z,40.28
2019-06-07T17:35:50.475Z,39.09
2019-06-07T17:38:18.988Z,38.59
2019-06-07T17:40:47.370Z,39.08
2019-06-07T17:43:15.697Z,38.86
2019-06-07T17:45:45.278Z,38.92
2019-06-07T17:48:14.020Z,38.89
2019-06-07T17:50:43.456Z,39.03
2019-06-07T17:53:12.256Z,39.56
2019-06-07T17:55:42.021Z,39.56
2019-06-07T17:58:10.564Z,40.07
2019-06-07T18:00:53.227Z,40.19
2019-06-07T18:04:24.176Z,40.66
2019-06-07T18:06:53.613Z,40.85
2019-06-07T18:09:23.588Z,41.13
2019-06-07T18:11:52.313Z,41.13
2019-06-07T18:14:20.882Z,41.04
2019-06-07T18:16:50.532Z,41.15
2019-06-07T18:19:19.125Z,41.55
2019-06-07T18:21:47.502Z,41.56
2019-06-07T18:24:16.065Z,41.29
2019-06-07T18:26:44.607Z,41.49
2019-06-07T18:29:12.997Z,41.21
2019-06-07T18:31:41.439Z,40.98
2019-06-07T18:34:09.837Z,40.96
2019-06-07T18:36:38.257Z,41.36
2019-06-07T18:39:08.100Z,41.39
2019-06-07T18:41:36.608Z,41.36
2019-06-07T18:44:20.502Z,41.27
2019-06-07T18:46:35.423Z,41.48
2019-06-07T18:49:04.054Z,41.15
2019-06-07T18:51:32.460Z,41.19
2019-06-07T18:54:00.825Z,41.78
2019-06-07T18:56:29.148Z,41.82
2019-06-07T18:58:57.668Z,41.39
2019-06-07T19:01:26.030Z,40.98
2019-06-07T19:03:54.438Z,41.37
2019-06-07T19:06:22.824Z,41.30
2019-06-07T19:08:55.059Z,41.38
2019-06-07T19:11:21.583Z,41.49
2019-06-07T19:13:50.937Z,41.28
2019-06-07T19:16:20.113Z,41.34
2019-06-07T19:18:49.703Z,41.36
2019-06-07T19:21:19.451Z,41.16
2019-06-07T19:23:47.774Z,41.03
2019-06-07T19:26:16.171Z,40.88
2019-06-07T19:28:44.560Z,40.89
2019-06-07T19:31:12.939Z,40.73
2019-06-07T19:33:49.178Z,40.96
2019-06-07T19:36:11.561Z,40.65
2019-06-07T19:38:39.888Z,40.68
2019-06-07T19:41:19.186Z,40.52
2019-06-07T19:43:38.479Z,40.42
2019-06-07T19:46:06.908Z,40.67
2019-06-07T19:48:35.531Z,40.65
2019-06-07T19:51:03.877Z,40.80
2019-06-07T19:53:32.190Z,40.82
2019-06-07T19:56:01.451Z,40.84
2019-06-07T19:58:29.975Z,40.56
2019-06-07T20:00:59.617Z,40.69
2019-06-07T20:03:28.262Z,40.45
2019-06-07T20:05:58.035Z,40.36
2019-06-07T20:08:26.980Z,40.24
2019-06-07T20:10:56.423Z,40.34
2019-06-07T20:13:24.838Z,40.18
2019-06-07T20:15:53.265Z,40.22
2019-06-07T20:18:21.610Z,40.43
2019-06-07T20:20:50.076Z,40.45
2019-06-07T20:23:18.556Z,40.66
2019-06-07T20:25:46.977Z,40.80
2019-06-07T20:28:15.341Z,40.76
2019-06-07T20:30:43.766Z,41.53
2019-06-07T20:33:12.070Z,41.77
2019-06-07T20:35:40.568Z,42.46
2019-06-07T20:38:09.552Z,42.73
2019-06-07T20:40:38.117Z,42.64
2019-06-07T20:43:08.127Z,43.23
2019-06-07T20:45:36.670Z,43.03
2019-06-07T20:48:06.377Z,43.32
2019-06-07T20:50:34.915Z,43.59
2019-06-07T20:53:05.045Z,44.09
2019-06-07T20:55:33.884Z,44.04
2019-06-07T20:58:03.705Z,44.37
2019-06-07T21:00:32.454Z,45.25
2019-06-07T21:03:01.099Z,44.93
2019-06-07T21:05:29.612Z,45.17
2019-06-07T21:07:59.302Z,45.30
2019-06-07T21:10:27.699Z,45.25
2019-06-07T21:12:56.024Z,46.15
2019-06-07T21:15:24.333Z,46.14
2019-06-07T21:17:52.852Z,46.40
2019-06-07T21:20:21.120Z,46.57
2019-06-07T21:22:49.449Z,46.93
2019-06-07T21:25:17.824Z,46.93
2019-06-07T21:27:46.335Z,47.47
2019-06-07T21:30:14.691Z,47.87
2019-06-07T21:32:43.605Z,47.87
2019-06-07T21:35:12.504Z,48.65
2019-06-07T21:37:40.930Z,51.00
2019-06-07T21:40:10.360Z,51.83
2019-06-07T21:42:38.934Z,52.44
2019-06-07T21:45:08.311Z,52.26
2019-06-07T21:47:37.994Z,53.59
2019-06-07T21:50:08.711Z,54.07
2019-06-07T21:52:37.315Z,54.90
2019-06-07T21:55:07.279Z,55.22
2019-06-07T21:57:36.459Z,55.22
2019-06-07T22:00:22.975Z,55.49
2019-06-07T22:02:51.400Z,55.59
2019-06-07T22:05:19.795Z,55.87
2019-06-07T22:07:48.148Z,55.99
2019-06-07T22:10:16.530Z,56.76
2019-06-07T22:12:44.898Z,57.34
2019-06-07T22:15:32.095Z,56.96
2019-06-07T22:17:44.702Z,57.43
2019-06-07T22:20:13.021Z,57.07
2019-06-07T22:22:41.324Z,57.83
2019-06-07T22:25:11.068Z,58.40
2019-06-07T22:27:39.481Z,60.52
2019-06-07T22:30:08.688Z,59.79
2019-06-07T22:32:37.127Z,59.93
2019-06-07T22:35:06.720Z,60.65
2019-06-07T22:37:35.270Z,60.79
2019-06-07T22:40:06.250Z,60.67
2019-06-07T22:42:34.691Z,59.65
2019-06-07T22:45:03.376Z,59.35
2019-06-07T22:47:31.812Z,59.42
2019-06-07T22:50:00.153Z,60.31
2019-06-07T22:52:28.472Z,60.45
2019-06-07T22:54:56.806Z,59.89
2019-06-07T22:57:26.873Z,60.32
2019-06-07T22:59:55.227Z,59.93
2019-06-07T23:02:23.548Z,59.10
2019-06-07T23:04:51.956Z,59.86
2019-06-07T23:07:20.335Z,59.04
2019-06-07T23:09:48.776Z,59.64
2019-06-07T23:12:17.645Z,60.10
2019-06-07T23:14:46.096Z,60.16
2019-06-07T23:17:15.642Z,60.43
2019-06-07T23:19:44.163Z,60.35
2019-06-07T23:22:13.760Z,60.02
2019-06-07T23:24:42.218Z,60.05
2019-06-07T23:27:11.476Z,59.12
2019-06-07T23:29:40.760Z,59.86
2019-06-07T23:32:10.435Z,59.19
2019-06-07T23:34:38.810Z,59.28
2019-06-07T23:37:07.204Z,58.86
2019-06-07T23:39:35.508Z,58.35
2019-06-07T23:42:04.029Z,58.83
2019-06-07T23:44:32.331Z,58.56
2019-06-07T23:47:10.688Z,58.87
2019-06-07T23:49:30.681Z,59.71
2019-06-07T23:51:59.316Z,59.30
2019-06-07T23:54:27.673Z,58.94
2019-06-07T23:56:55.991Z,60.15
2019-06-07T23:59:24.288Z,59.78
